Beloit, Kansas
Current Conditions -  °F | °C
As of 7:55 AM on Thursday 23 Oct 2014 (Local Time) from KCNK Reporting Station
Overcast Overcast  
Wind Chill: 61°   Ceiling: 1400
Heat Index: 61°   Visibility: 7mi
Dew Point: 60°   Wind: 5mph
Humidity: 97%   Direction: 220°SW
Pressure: 30.06"   Gusts: NA
Location:  39.46°N, 98.11°W
Report Text: KCNK 231255Z AUTO 22004KT 7SM OVC014 16/16 A3006 RMK AO2 SLP172 T01610156
Loading
Personal Weather Stations






























Interactive Weather Map
Tropical Storm Tracking
New forecast layout! Learn more

10-Day Weather Forecast

Advertisements
Track Severe Weather on mobile